Latest Weather Observations for Red Rocks Point

IDW60801

Issued at 8:23 am WST Tuesday 22 September 2020 (issued every 10 minutes, with the page automatically refreshed every 10 minutes)

About weather observations | Map of weather stations | Latest weather observations for WA | Other Formats
Station Details ID: 011053 Name: RED ROCKS POINT Lat: -32.20 Lon: 127.53 Height: 3.1 m
Data from the previous 72 hours. | See also: Recent months at Red Rocks Point
Date/Time
WST
Temp
°C
App
Temp
°C
Dew
Point
°C
Rel
Hum
%
Delta-T
°C
Wind Press
QNH
hPa
Press
MSL
hPa
Rain since
9am
mm
Dir  Spd
km/h
Gust
km/h
Spd
kts
Gust
kts
22/08:00am 15.8 9.8 -6.5 21 8.2 WNW 17 26 9 14 1020.6 1020.6 -
22/07:30am 14.4 8.4 -7.0 22 7.7 WNW 17 24 9 13 1020.4 1020.4 -
22/07:00am 12.4 6.7 -7.0 25 6.8 NW 15 20 8 11 1019.9 1019.9 -
22/06:30am 10.6 4.9 -7.1 28 6.1 NW 15 20 8 11 1019.5 1019.5 -
22/06:00am 9.2 3.5 -7.4 30 5.5 NW 15 20 8 11 1019.2 1019.2 -
22/05:30am 8.7 3.3 -7.9 30 5.4 NW 13 20 7 11 1018.9 1018.9 -
22/05:00am 8.9 2.7 -8.6 28 5.6 NW 17 22 9 12 1018.5 1018.5 -
22/04:30am 8.6 3.5 -9.3 27 5.7 NW 11 15 6 8 1018.2 1018.2 -
22/04:00am 9.0 3.5 -9.4 26 5.8 NW 13 19 7 10 1017.8 1017.8 -
22/03:30am 10.0 4.2 -8.6 26 6.1 NW 15 19 8 10 1017.6 1017.6 -
22/03:00am 9.9 5.2 -9.2 25 6.1 WNW 9 13 5 7 1017.3 1017.3 -
22/02:30am 10.4 4.9 -9.3 24 6.4 NW 13 20 7 11 1017.3 1017.3 -
22/02:00am 12.7 7.0 -7.3 24 7.0 SW 15 22 8 12 1017.2 1017.2 -
22/01:30am 12.3 6.2 -7.7 24 6.9 WSW 17 26 9 14 1017.5 1017.5 -
22/01:00am 12.4 5.7 -8.1 23 7.0 SW 20 32 11 17 1017.5 1017.5 -
22/12:30am 12.6 5.1 -8.0 23 7.1 SW 24 37 13 20 1017.7 1017.7 -
22/12:00am 13.3 6.7 -7.4 23 7.3 SW 20 35 11 19 1017.7 1017.7 -
 
Date/Time
WST
Temp
°C
App
Temp
°C
Dew
Point
°C
Rel
Hum
%
Delta-T
°C
Wind Press
QNH
hPa
Press
MSL
hPa
Rain since
9am
mm
Dir  Spd
km/h
Gust
km/h
Spd
kts
Gust
kts
21/11:30pm 13.0 6.2 -8.8 21 7.4 WSW 20 32 11 17 1017.7 1017.7 -
21/11:00pm 13.3 6.5 -9.2 20 7.6 SW 20 35 11 19 1017.6 1017.6 -
21/10:30pm 13.1 5.8 -11.4 17 7.9 SW 22 35 12 19 1017.7 1017.7 -
21/10:00pm 13.2 6.0 -9.2 20 7.5 WSW 22 33 12 18 1017.8 1017.8 -
21/09:30pm 13.6 6.1 -8.9 20 7.7 SW 24 39 13 21 1018.0 1018.0 -
21/09:00pm 13.6 6.0 -10.2 18 7.9 WSW 24 37 13 20 1018.1 1018.1 -
21/08:30pm 13.9 5.8 -11.5 16 8.2 WSW 26 39 14 21 1018.2 1018.2 -
21/08:00pm 13.9 5.5 -10.7 17 8.1 WSW 28 41 15 22 1018.2 1018.2 -
21/07:30pm 14.0 5.7 -9.2 19 7.9 SW 28 39 15 21 1017.9 1017.9 -
21/07:00pm 14.2 6.7 -8.4 20 7.8 WSW 24 33 13 18 1017.6 1017.6 -
21/06:30pm 14.1 6.1 -10.5 17 8.2 WSW 26 41 14 22 1017.3 1017.3 -
21/06:00pm 14.0 5.7 -9.2 19 7.9 WSW 28 43 15 23 1016.6 1016.6 -
21/05:30pm 13.9 6.0 -8.7 20 7.8 WSW 26 39 14 21 1016.2 1016.2 -
21/05:00pm 14.2 6.8 -7.8 21 7.7 WSW 24 35 13 19 1016.0 1016.0 -
21/04:30pm 14.8 6.6 -7.9 20 8.0 WSW 28 46 15 25 1015.6 1015.6 -
21/04:07pm 15.4 7.2 -8.1 19 8.3 WSW 28 46 15 25 1015.2 1015.2 -
21/04:00pm 15.6 7.8 -7.2 20 8.3 WSW 26 39 14 21 1015.2 1015.2 -
21/03:33pm 15.7 7.6 -6.5 21 8.2 SW 28 46 15 25 1014.7 1014.7 -
21/03:30pm 16.3 9.1 -5.4 22 8.3 SW 24 41 13 22 1014.7 1014.7 -
21/03:00pm 16.7 9.1 -5.1 22 8.4 WSW 26 39 14 21 1014.3 1014.3 -
21/02:30pm 17.0 8.6 -5.5 21 8.6 SW 30 41 16 22 1014.1 1014.1 -
21/02:07pm 17.2 8.1 -7.3 18 9.0 WSW 33 54 18 29 1013.9 1013.9 -
21/02:00pm 17.5 8.4 -7.8 17 9.3 WSW 33 50 18 27 1013.7 1013.7 -
21/01:32pm 17.5 9.0 -7.0 18 9.1 WSW 30 48 16 26 1013.7 1013.7 -
21/01:30pm 17.6 8.7 -7.0 18 9.2 WSW 32 48 17 26 1013.7 1013.7 -
21/01:00pm 17.3 7.4 -7.2 18 9.1 WSW 37 56 20 30 1013.6 1013.6 -
21/12:30pm 17.2 8.1 -7.3 18 9.0 WSW 33 54 18 29 1013.7 1013.7 -
21/12:00pm 16.0 6.1 -7.6 19 8.5 WSW 37 56 20 30 1013.6 1013.6 -
21/11:34am 16.6 8.2 -5.8 21 8.5 WSW 30 48 16 26 1013.5 1013.5 -
21/11:30am 16.5 8.2 -4.7 23 8.2 WSW 30 46 16 25 1013.5 1013.5 -
21/11:00am 15.1 6.3 -5.9 23 7.8 WSW 32 50 17 27 1013.5 1013.5 -
21/10:39am 15.1 7.3 -3.7 27 7.3 WSW 28 52 15 28 1013.4 1013.4 -
21/10:30am 15.5 8.5 -3.4 27 7.4 WSW 24 37 13 20 1013.4 1013.4 -
21/10:00am 14.6 7.8 -1.9 32 6.7 W 24 37 13 20 1013.4 1013.4 -
21/09:30am 14.6 7.1 -1.1 34 6.4 W 28 43 15 23 1013.5 1013.5 -
21/09:00am 13.6 7.6 -1.9 34 6.2 W 20 32 11 17 1013.3 1013.3 -
21/08:30am 12.8 6.7 -2.6 34 6.0 WNW 20 30 11 16 1013.0 1013.0 -
21/08:00am 12.4 6.2 -3.0 34 5.9 WNW 20 33 11 18 1012.7 1012.7 -
21/07:30am 12.0 6.3 -3.4 34 5.8 WNW 17 30 9 16 1012.0 1012.0 -
21/07:00am 11.0 6.0 -4.2 34 5.6 W 13 20 7 11 1011.8 1011.8 -
21/06:30am 11.3 4.6 -4.4 33 5.8 WNW 22 33 12 18 1011.1 1011.1 -
21/06:00am 11.8 5.5 -5.6 29 6.3 W 19 37 10 20 1010.7 1010.7 -
21/05:30am 12.9 5.5 -7.7 23 7.2 W 24 46 13 25 1009.6 1009.6 -
21/05:00am 13.3 4.7 -7.9 22 7.4 W 30 54 16 29 1009.4 1009.4 -
21/04:45am 13.8 5.4 -10.1 18 8.0 W 28 52 15 28 1008.9 1008.9 -
21/04:30am 14.1 6.5 -9.8 18 8.0 W 24 48 13 26 1008.8 1008.8 -
21/04:00am 14.2 5.8 -9.7 18 8.1 W 28 46 15 25 1008.3 1008.3 -
21/03:30am 14.4 5.6 -10.3 17 8.3 W 30 50 16 27 1007.8 1007.8 -
21/03:14am 14.5 6.1 -10.2 17 8.3 W 28 50 15 27 1007.7 1007.7 -
21/03:00am 14.4 6.7 -11.1 16 8.4 W 24 43 13 23 1007.6 1007.6 -
21/02:39am 14.5 6.1 -11.0 16 8.4 W 28 50 15 27 1007.4 1007.4 -
21/02:30am 14.1 7.0 -13.9 13 8.6 WNW 20 30 11 16 1007.4 1007.4 -
21/02:00am 14.2 6.4 -12.0 15 8.4 W 24 39 13 21 1007.3 1007.3 -
21/01:30am 14.2 7.0 -15.8 11 8.9 WNW 20 28 11 15 1007.2 1007.2 -
21/01:00am 14.4 6.8 -16.8 10 9.1 WNW 22 41 12 22 1007.1 1007.1 -
21/12:30am 14.5 6.9 -16.7 10 9.1 WNW 22 35 12 19 1006.9 1006.9 -
21/12:00am 14.6 7.4 -16.6 10 9.2 WNW 20 35 11 19 1006.9 1006.9 -
 
Date/Time
WST
Temp
°C
App
Temp
°C
Dew
Point
°C
Rel
Hum
%
Delta-T
°C
Wind Press
QNH
hPa
Press
MSL
hPa
Rain since
9am
mm
Dir  Spd
km/h
Gust
km/h
Spd
kts
Gust
kts
20/11:30pm 14.7 6.7 -16.6 10 9.2 WNW 24 50 13 27 1007.0 1007.0 -
20/11:00pm 14.6 6.6 -16.6 10 9.2 WNW 24 37 13 20 1006.9 1006.9 -
20/10:30pm 14.3 6.7 -16.9 10 9.0 WNW 22 30 12 16 1006.9 1006.9 -
20/10:00pm 14.0 6.7 -17.1 10 8.9 NW 20 35 11 19 1006.9 1006.9 -
20/09:30pm 13.1 6.0 -17.8 10 8.6 NW 19 28 10 15 1007.0 1007.0 -
20/09:00pm 12.2 5.9 -17.4 11 8.2 NW 15 20 8 11 1007.0 1007.0 -
20/08:30pm 12.4 6.4 -18.3 10 8.4 NW 13 20 7 11 1007.2 1007.2 -
20/08:00pm 11.9 6.3 -17.6 11 8.1 NW 11 15 6 8 1007.2 1007.2 -
20/07:30pm 12.1 6.5 -17.4 11 8.2 NNW 11 15 6 8 1007.2 1007.2 -
20/07:00pm 12.7 7.5 -18.1 10 8.5 NNW 9 15 5 8 1007.0 1007.0 -
20/06:30pm 13.8 8.2 -18.5 9 9.0 NW 11 15 6 8 1006.7 1006.7 -
20/06:00pm 15.3 8.9 -20.3 7 9.8 NW 15 24 8 13 1006.2 1006.2 -
20/05:30pm 16.1 8.9 -21.5 6 10.2 NW 19 35 10 19 1006.1 1006.1 -
20/05:00pm 17.0 9.2 -20.8 6 10.6 WNW 22 39 12 21 1005.9 1005.9 -
20/04:32pm 17.9 8.5 -22.2 5 11.0 WNW 30 56 16 30 1005.6 1005.6 -
20/04:30pm 18.0 8.6 -22.2 5 11.1 WNW 30 43 16 23 1005.6 1005.6 -
20/04:03pm 18.5 9.2 -21.8 5 11.3 WNW 30 48 16 26 1005.5 1005.5 -
20/04:00pm 18.7 9.0 -21.7 5 11.4 WNW 32 54 17 29 1005.5 1005.5 -
20/03:30pm 19.1 9.8 -21.4 5 11.5 W 30 48 16 26 1005.4 1005.4 -
20/03:00pm 19.3 9.6 -21.2 5 11.7 WNW 32 56 17 30 1005.5 1005.5 -
20/02:30pm 19.3 10.0 -21.2 5 11.6 WNW 30 48 16 26 1005.5 1005.5 -
20/02:00pm 19.1 8.8 -21.4 5 11.6 WNW 35 54 19 29 1005.7 1005.7 -
20/01:37pm 18.8 9.2 -19.5 6 11.3 WNW 32 50 17 27 1005.9 1005.9 -
20/01:30pm 19.2 9.5 -21.3 5 11.6 WNW 32 48 17 26 1005.9 1005.9 -
20/01:00pm 18.9 9.1 -19.4 6 11.3 WNW 33 63 18 34 1005.9 1005.9 -
20/12:30pm 18.4 9.1 -19.8 6 11.1 WNW 30 54 16 29 1006.1 1006.1 -
20/12:00pm 18.3 8.5 -18.1 7 11.0 WNW 33 57 18 31 1006.3 1006.3 -
20/11:30am 17.7 8.8 -20.3 6 10.8 W 28 46 15 25 1006.5 1006.5 -
20/11:00am 17.5 7.9 -18.7 7 10.6 W 32 56 17 30 1006.7 1006.7 -
20/10:30am 17.3 7.8 -15.8 9 10.2 W 32 50 17 27 1006.7 1006.7 -
20/10:01am 16.5 7.4 -15.2 10 9.8 W 30 48 16 26 1006.8 1006.8 -
20/10:00am 16.2 6.7 -15.4 10 9.7 W 32 48 17 26 1006.8 1006.8 -
20/09:30am 16.1 7.5 -13.3 12 9.4 W 28 48 15 26 1006.6 1006.6 -
20/09:00am 15.6 6.2 -13.7 12 9.3 W 32 52 17 28 1006.7 1006.7 -
20/08:31am 15.7 7.1 -13.6 12 9.3 W 28 48 15 26 1006.5 1006.5 -
20/08:30am 15.8 7.6 -13.5 12 9.3 W 26 48 14 26 1006.5 1006.5 -
20/08:00am 15.0 5.7 -13.2 13 9.0 WNW 32 57 17 31 1006.4 1006.4 -
20/07:39am 14.9 6.0 -11.5 15 8.7 WNW 30 52 16 28 1006.2 1006.2 -
20/07:30am 14.9 6.5 -9.9 17 8.4 W 28 44 15 24 1006.2 1006.2 -
20/07:20am 14.6 6.3 -9.4 18 8.2 WNW 28 48 15 26 1006.1 1006.1 -
20/07:00am 14.2 7.2 -7.2 22 7.7 WNW 22 50 12 27 1006.0 1006.0 -
20/06:30am 13.6 8.5 -5.0 27 6.9 WNW 13 24 7 13 1005.5 1005.5 -
20/06:00am 12.8 8.2 -4.3 30 6.4 WNW 11 17 6 9 1005.1 1005.1 -
20/05:30am 12.4 6.1 -6.0 27 6.6 W 19 30 10 16 1004.7 1004.7 -
20/05:00am 13.1 5.8 -3.2 32 6.3 WSW 26 43 14 23 1004.5 1004.5 -
20/04:48am 12.9 5.2 -2.6 34 6.0 WSW 28 46 15 25 1004.4 1004.4 -
20/04:30am 12.6 6.1 -2.4 35 5.9 WSW 22 41 12 22 1004.1 1004.1 -
20/04:22am 12.8 7.3 -1.9 36 5.8 WNW 17 41 9 22 1004.2 1004.2 -
20/04:00am 12.6 7.8 -2.4 35 5.9 NW 13 15 7 8 1003.4 1003.4 -
20/03:30am 13.1 8.8 -2.0 35 6.0 WNW 11 15 6 8 1003.1 1003.1 -
20/03:00am 13.4 8.7 -2.1 34 6.2 WNW 13 15 7 8 1003.2 1003.2 -
20/02:30am 14.1 9.8 -1.9 33 6.4 WSW 11 15 6 8 1002.3 1002.3 -
20/02:00am 14.2 9.8 -2.2 32 6.6 W 11 17 6 9 1002.5 1002.5 -
20/01:30am 14.4 10.4 -2.5 31 6.7 W 9 13 5 7 1002.5 1002.5 -
20/01:00am 14.8 9.9 -3.0 29 7.1 SSW 13 17 7 9 1002.3 1002.3 -
20/12:30am 15.3 9.3 -3.1 28 7.3 SSW 19 26 10 14 1002.6 1002.6 -
20/12:00am 15.8 8.5 -3.1 27 7.6 SSW 26 39 14 21 1002.5 1002.5 -
 
Date/Time
WST
Temp
°C
App
Temp
°C
Dew
Point
°C
Rel
Hum
%
Delta-T
°C
Wind Press
QNH
hPa
Press
MSL
hPa
Rain since
9am
mm
Dir  Spd
km/h
Gust
km/h
Spd
kts
Gust
kts
19/11:30pm 15.8 7.1 -3.1 27 7.5 SW 33 52 18 28 1002.5 1002.5 -
19/11:29pm 15.9 7.5 -2.6 28 7.4 SW 32 52 17 28 1002.5 1002.5 -
19/11:24pm 15.7 8.5 -1.8 30 7.1 WSW 26 44 14 24 1002.2 1002.2 -
19/11:00pm 13.5 8.3 -6.6 24 7.3 WNW 13 20 7 11 1001.9 1001.9 -
19/10:30pm 14.6 9.7 -6.8 22 7.7 NNW 11 17 6 9 1001.7 1001.7 -
19/10:00pm 15.2 9.7 -5.8 23 7.9 N 15 20 8 11 1001.3 1001.3 -
19/09:30pm 16.2 9.8 -6.8 20 8.5 NNE 19 28 10 15 1000.4 1000.4 -
19/09:00pm 16.6 9.6 -7.1 19 8.8 NNE 22 30 12 16 1000.2 1000.2 -
19/08:30pm 15.5 9.6 -6.1 22 8.0 NE 17 22 9 12 1000.5 1000.5 -
19/08:00pm 14.9 10.3 -4.4 26 7.4 NE 11 15 6 8 1000.9 1000.9 -
19/07:30pm 16.5 10.7 -0.2 32 7.1 ENE 20 24 11 13 1001.5 1001.5 -
19/07:00pm 16.6 10.7 -1.0 30 7.4 ENE 20 26 11 14 1001.8 1001.8 -
19/06:30pm 14.5 11.9 -4.7 26 7.3 CALM 0 0 0 0 1002.0 1002.0 -
19/06:00pm 15.8 11.2 -4.2 25 7.8 NNE 11 13 6 7 1002.3 1002.3 -
19/05:30pm 17.7 15.1 -4.9 21 8.8 CALM 0 0 0 0 1002.5 1002.5 -
19/05:00pm 20.9 17.7 0.7 26 9.2 NW 7 11 4 6 1002.6 1002.6 -
19/04:30pm 22.5 18.1 0.4 23 10.0 NW 13 20 7 11 1002.5 1002.5 -
19/04:00pm 23.3 18.0 1.6 24 10.2 NW 19 33 10 18 1002.3 1002.3 -
19/03:30pm 23.7 19.2 2.0 24 10.3 NW 15 26 8 14 1002.4 1002.4 -
19/03:00pm 23.6 18.8 2.4 25 10.1 NW 17 26 9 14 1002.6 1002.6 -
19/02:30pm 23.2 16.2 -3.2 17 11.3 WNW 24 33 13 18 1002.9 1002.9 -
19/02:00pm 22.5 16.6 -0.9 21 10.4 NW 20 32 11 17 1003.1 1003.1 -
19/01:30pm 23.3 19.4 9.3 41 7.6 NW 20 37 11 20 1003.2 1003.2 -
19/01:00pm 22.6 19.3 11.0 48 6.5 NW 19 30 10 16 1003.8 1003.8 -
19/12:30pm 22.0 18.8 12.0 53 5.6 NW 20 32 11 17 1004.4 1004.4 -
19/12:00pm 21.3 18.9 12.7 58 4.9 NW 17 28 9 15 1005.1 1005.1 -
19/11:30am 20.0 16.9 11.5 58 4.7 WNW 19 26 10 14 1005.7 1005.7 -
19/11:00am 19.5 16.6 12.3 63 4.0 NW 19 28 10 15 1006.4 1006.4 -
19/10:30am 17.5 14.1 10.4 63 3.8 NW 19 30 10 16 1006.7 1006.7 -
19/10:00am 16.7 13.3 11.2 70 3.0 NW 20 32 11 17 1007.1 1007.1 -
19/09:30am 15.6 12.5 10.4 71 2.7 NW 17 24 9 13 1007.6 1007.6 -
19/09:00am 15.0 12.1 9.6 70 2.8 NW 15 20 8 11 1007.8 1007.8 -
19/08:30am 14.5 10.8 9.3 71 2.7 WNW 19 24 10 13 1007.8 1007.8 -

Other formats

Comma delimited format used in spreadsheet applications
http://www.bom.gov.au/fwo/IDW60801/IDW60801.94644.axf

JavaScript Object Notation format (JSON) in row-major order
http://www.bom.gov.au/fwo/IDW60801/IDW60801.94644.json

Data quality

Most of these data are generated automatically and are frequently updated. Quality checks on data are not normally performed. It is possible for incorrect values to appear. Refer to information at About Latest Weather Observations and please check the disclaimer before using these data.